Lorton, Virginia
Current Conditions -  °F | °C
As of 7:58 PM on Friday 24 Oct 2014 (Local Time) from KDAA Reporting Station
Clear Clear  
Wind Chill: 53°   Ceiling: Unl
Heat Index: 53°   Visibility: 10mi
Dew Point: 44°   Wind: 2mph
Humidity: 73%   Direction: 250°WSW
Pressure: 29.94"   Gusts: NA
Location:  38.7°N, 77.21°W
Report Text: KDAA 242358Z AUTO 25002KT 10SM CLR 11/07 A2994 RMK AO2 SLP142 T01140067 10204 20111 52013
Loading
Personal Weather Stations






























Interactive Weather Map
Tropical Storm Tracking
New forecast layout! Learn more

10-Day Weather Forecast

Advertisements
Track Severe Weather on mobile